TimeCST,TemperatureF,Dew PointF,Humidity,Sea Level PressureIn,VisibilityMPH,Wind Direction,Wind SpeedMPH,Gust SpeedMPH,PrecipitationIn,Events,Conditions,WindDirDegrees,DateUTC
12:32 AM,35.6,30.2,81,29.72,10.0,NW,18.4,32.2,N/A,,Overcast,320,2013-02-26 06:32:00
12:51 AM,37.4,30.2,75,29.72,10.0,NNW,19.6,33.4,N/A,,Overcast,330,2013-02-26 06:51:00
12:53 AM,37.0,30.0,76,29.74,10.0,NNW,18.4,33.4,N/A,,Overcast,330,2013-02-26 06:53:00
1:09 AM,35.6,30.2,81,29.72,10.0,NW,13.8,26.5,N/A,,Overcast,320,2013-02-26 07:09:00
1:53 AM,37.0,30.0,76,29.75,10.0,NW,19.6,31.1,N/A,,Overcast,320,2013-02-26 07:53:00
2:12 AM,37.4,30.2,75,29.73,10.0,NNW,20.7,34.5,N/A,,Mostly Cloudy,330,2013-02-26 08:12:00
2:53 AM,37.0,30.0,76,29.75,10.0,NNW,18.4,32.2,N/A,,Mostly Cloudy,330,2013-02-26 08:53:00
3:18 AM,37.4,30.2,75,29.74,10.0,NW,16.1,24.2,N/A,,Overcast,320,2013-02-26 09:18:00
3:53 AM,37.0,30.0,76,29.77,10.0,NNW,13.8,21.9,N/A,,Overcast,330,2013-02-26 09:53:00
4:53 AM,36.0,30.0,79,29.77,10.0,NNW,17.3,25.3,N/A,,Overcast,330,2013-02-26 10:53:00
5:53 AM,36.0,30.0,79,29.82,10.0,NW,13.8,20.7,N/A,,Overcast,310,2013-02-26 11:53:00
6:30 AM,35.6,28.4,75,29.81,10.0,NW,10.4,-,N/A,,Scattered Clouds,320,2013-02-26 12:30:00
6:53 AM,34.0,28.0,79,29.83,10.0,NW,10.4,-,N/A,,Clear,320,2013-02-26 12:53:00
7:53 AM,35.1,28.0,76,29.85,10.0,WNW,6.9,-,N/A,,Clear,300,2013-02-26 13:53:00
8:53 AM,37.9,28.0,68,29.87,10.0,NNW,15.0,-,N/A,,Clear,340,2013-02-26 14:53:00
9:53 AM,41.0,28.0,60,29.87,10.0,NW,9.2,16.1,N/A,,Clear,320,2013-02-26 15:53:00
10:53 AM,45.0,28.0,52,29.89,10.0,NNW,11.5,-,N/A,,Clear,330,2013-02-26 16:53:00
11:53 AM,46.0,30.0,54,29.89,10.0,NNW,13.8,19.6,N/A,,Clear,340,2013-02-26 17:53:00
12:53 PM,46.9,28.9,50,29.88,10.0,NNW,13.8,-,N/A,,Clear,340,2013-02-26 18:53:00
1:53 PM,48.9,28.9,46,29.86,10.0,NW,10.4,-,N/A,,Clear,320,2013-02-26 19:53:00
2:53 PM,51.1,30.0,44,29.84,10.0,NNW,5.8,-,N/A,,Clear,340,2013-02-26 20:53:00
3:53 PM,51.1,30.0,44,29.84,10.0,North,4.6,-,N/A,,Clear,350,2013-02-26 21:53:00
4:53 PM,51.1,30.0,44,29.84,10.0,Calm,Calm,-,N/A,,Clear,0,2013-02-26 22:53:00
5:53 PM,50.0,30.9,48,29.84,10.0,NW,3.5,-,N/A,,Clear,310,2013-02-26 23:53:00
6:53 PM,44.1,33.1,65,29.87,10.0,NNW,5.8,-,N/A,,Clear,340,2013-02-27 00:53:00
7:53 PM,39.0,30.9,73,29.89,10.0,North,6.9,-,N/A,,Clear,360,2013-02-27 01:53:00
8:53 PM,37.9,30.0,73,29.92,10.0,North,13.8,-,N/A,,Clear,10,2013-02-27 02:53:00
9:53 PM,37.0,28.9,73,29.94,10.0,North,15.0,-,N/A,,Clear,360,2013-02-27 03:53:00
10:53 PM,37.0,28.9,73,29.94,10.0,NNE,9.2,-,N/A,,Partly Cloudy,20,2013-02-27 04:53:00
11:53 PM,37.0,28.0,70,29.92,10.0,North,15.0,-,N/A,,Overcast,10,2013-02-27 05:53:00